createdAt,value
2023-11-15T00:01:13.560Z,98240.74
2023-11-15T00:03:51.603Z,98236.07
2023-11-15T00:06:21.902Z,98236.76
2023-11-15T00:08:51.824Z,98235.60
2023-11-15T00:11:21.666Z,98234.84
2023-11-15T00:13:51.739Z,98238.00
2023-11-15T00:16:21.636Z,98237.84
2023-11-15T00:18:51.467Z,98237.56
2023-11-15T00:21:21.540Z,98237.63
2023-11-15T00:23:51.417Z,98239.39
2023-11-15T00:26:21.583Z,98240.64
2023-11-15T00:28:55.180Z,98239.28
2023-11-15T00:31:24.990Z,98241.83
2023-11-15T00:33:55.227Z,98241.54
2023-11-15T00:36:24.715Z,98240.36
2023-11-15T00:38:54.999Z,98238.88
2023-11-15T00:41:24.450Z,98243.90
2023-11-15T00:43:55.210Z,98238.10
2023-11-15T00:46:24.484Z,98242.66
2023-11-15T00:48:54.239Z,98241.88
2023-11-15T00:51:23.734Z,98245.59
2023-11-15T00:53:52.940Z,98247.46
2023-11-15T00:56:22.696Z,98247.60
2023-11-15T00:58:53.790Z,98244.70
2023-11-15T01:01:25.769Z,98249.38
2023-11-15T01:03:57.038Z,98248.95
2023-11-15T01:06:27.041Z,98250.23
2023-11-15T01:08:57.343Z,98252.64
2023-11-15T01:11:27.228Z,98251.62
2023-11-15T01:13:57.025Z,98252.48
2023-11-15T01:16:27.481Z,98253.91
2023-11-15T01:18:57.896Z,98255.50
2023-11-15T01:21:28.518Z,98256.03
2023-11-15T01:23:58.174Z,98249.70
2023-11-15T01:26:28.607Z,98255.04
2023-11-15T01:28:58.506Z,98251.48
2023-11-15T01:31:27.923Z,98248.42
2023-11-15T01:33:57.595Z,98246.33
2023-11-15T01:36:28.420Z,98244.81
2023-11-15T01:38:58.119Z,98248.79
2023-11-15T01:41:28.470Z,98246.70
2023-11-15T01:43:57.683Z,98247.73
2023-11-15T01:46:28.060Z,98249.45
2023-11-15T01:48:58.781Z,98247.48
2023-11-15T01:51:28.155Z,98244.03
2023-11-15T01:53:57.772Z,98247.05
2023-11-15T01:56:28.735Z,98245.23
2023-11-15T01:58:59.123Z,98246.06
2023-11-15T02:01:29.769Z,98248.84
2023-11-15T02:03:59.598Z,98244.00
2023-11-15T02:06:31.440Z,98248.52
2023-11-15T02:09:01.552Z,98251.02
2023-11-15T02:11:31.037Z,98252.10
2023-11-15T02:14:00.514Z,98253.48
2023-11-15T02:16:30.487Z,98254.30
2023-11-15T02:19:00.792Z,98251.45
2023-11-15T02:21:30.601Z,98251.27
2023-11-15T02:24:01.159Z,98247.67
2023-11-15T02:26:30.641Z,98249.95
2023-11-15T02:29:00.652Z,98255.37
2023-11-15T02:31:32.516Z,98261.33
2023-11-15T02:34:02.613Z,98262.38
2023-11-15T02:36:32.009Z,98264.88
2023-11-15T02:39:01.990Z,98265.17
2023-11-15T02:41:31.362Z,98266.94
2023-11-15T02:44:01.009Z,98265.52
2023-11-15T02:46:30.697Z,98265.64
2023-11-15T02:49:00.898Z,98266.19
2023-11-15T02:51:30.836Z,98270.05
2023-11-15T02:54:00.087Z,98272.70
2023-11-15T02:56:29.684Z,98270.89
2023-11-15T02:58:59.200Z,98275.71
2023-11-15T03:01:28.525Z,98276.06
2023-11-15T03:03:58.188Z,98279.25
2023-11-15T03:06:27.861Z,98281.45
2023-11-15T03:08:57.484Z,98280.73
2023-11-15T03:11:27.139Z,98282.64
2023-11-15T03:13:57.674Z,98282.41
2023-11-15T03:16:27.369Z,98286.51
2023-11-15T03:18:57.055Z,98286.84
2023-11-15T03:21:27.795Z,98287.46
2023-11-15T03:23:57.191Z,98288.74
2023-11-15T03:26:27.129Z,98287.75
2023-11-15T03:28:57.123Z,98290.36
2023-11-15T03:31:27.205Z,98287.20
2023-11-15T03:33:57.197Z,98286.61
2023-11-15T03:36:26.524Z,98287.80
2023-11-15T03:38:56.167Z,98290.95
2023-11-15T03:41:26.895Z,98290.23
2023-11-15T03:43:56.493Z,98290.56
2023-11-15T03:46:27.150Z,98291.64
2023-11-15T03:48:56.580Z,98292.64
2023-11-15T03:51:25.989Z,98294.34
2023-11-15T03:53:55.250Z,98296.54
2023-11-15T03:56:24.591Z,98302.27
2023-11-15T03:58:54.162Z,98303.06
2023-11-15T04:01:23.957Z,98307.81
2023-11-15T04:03:54.028Z,98309.55
2023-11-15T04:06:23.740Z,98313.20
2023-11-15T04:08:56.691Z,98314.61
2023-11-15T04:11:26.702Z,98314.67
2023-11-15T04:13:55.971Z,98319.41
2023-11-15T04:16:25.545Z,98318.33
2023-11-15T04:18:55.093Z,98321.75
2023-11-15T04:21:24.471Z,98322.87
2023-11-15T04:23:55.056Z,98325.02
2023-11-15T04:26:25.117Z,98328.65
2023-11-15T04:28:54.637Z,98327.79
2023-11-15T04:31:25.191Z,98326.55
2023-11-15T04:33:55.908Z,98324.07
2023-11-15T04:36:25.499Z,98328.79
2023-11-15T04:38:55.465Z,98328.10
2023-11-15T04:41:24.891Z,98330.80
2023-11-15T04:43:54.484Z,98330.87
2023-11-15T04:46:24.286Z,98332.27
2023-11-15T04:48:53.842Z,98330.96
2023-11-15T04:51:23.519Z,98330.39
2023-11-15T04:53:55.311Z,98331.00
2023-11-15T04:56:25.926Z,98331.94
2023-11-15T04:58:55.514Z,98332.15
2023-11-15T05:01:25.226Z,98333.44
2023-11-15T05:03:55.289Z,98333.59
2023-11-15T05:06:24.672Z,98337.33
2023-11-15T05:08:54.846Z,98339.05
2023-11-15T05:11:24.933Z,98341.84
2023-11-15T05:13:54.465Z,98346.14
2023-11-15T05:16:24.177Z,98349.34
2023-11-15T05:18:53.466Z,98351.86
2023-11-15T05:21:23.045Z,98353.36
2023-11-15T05:23:52.969Z,98359.51
2023-11-15T05:26:23.379Z,98361.74
2023-11-15T05:28:52.997Z,98358.72
2023-11-15T05:31:22.891Z,98357.58
2023-11-15T05:33:52.130Z,98362.63
2023-11-15T05:36:22.631Z,98366.84
2023-11-15T05:38:53.194Z,98366.80
2023-11-15T05:41:26.644Z,98371.89
2023-11-15T05:43:56.692Z,98370.95
2023-11-15T05:46:27.025Z,98375.48
2023-11-15T05:48:56.867Z,98380.32
2023-11-15T05:51:26.615Z,98381.04
2023-11-15T05:53:56.235Z,98383.73
2023-11-15T05:56:26.037Z,98387.16
2023-11-15T05:58:55.783Z,98390.31
2023-11-15T06:01:25.415Z,98393.77
2023-11-15T06:03:55.221Z,98404.13
2023-11-15T06:06:24.792Z,98407.64
2023-11-15T06:08:54.256Z,98414.91
2023-11-15T06:11:23.932Z,98416.90
2023-11-15T06:13:53.485Z,98423.48
2023-11-15T06:16:23.230Z,98428.86
2023-11-15T06:18:52.796Z,98435.17
2023-11-15T06:21:22.224Z,98439.24
2023-11-15T06:23:52.519Z,98442.52
2023-11-15T06:26:22.304Z,98443.92
2023-11-15T06:28:52.258Z,98446.64
2023-11-15T06:31:23.537Z,98450.33
2023-11-15T06:33:52.891Z,98453.11
2023-11-15T06:36:22.575Z,98458.80
2023-11-15T06:38:52.247Z,98462.77
2023-11-15T06:41:21.879Z,98474.87
2023-11-15T06:43:51.789Z,98473.16
2023-11-15T06:46:21.517Z,98477.16
2023-11-15T06:48:51.551Z,98482.56
2023-11-15T06:51:21.889Z,98493.02
2023-11-15T06:53:53.769Z,98497.86
2023-11-15T06:56:23.306Z,98497.46
2023-11-15T06:58:52.849Z,98499.48
2023-11-15T07:01:22.817Z,98497.27
2023-11-15T07:03:53.903Z,98503.48
2023-11-15T07:06:23.721Z,98507.98
2023-11-15T07:08:52.981Z,98508.77
2023-11-15T07:11:22.766Z,98514.04
2023-11-15T07:13:52.679Z,98516.27
2023-11-15T07:16:22.026Z,98521.69
2023-11-15T07:18:51.940Z,98524.05
2023-11-15T07:21:21.956Z,98528.91
2023-11-15T07:23:52.438Z,98533.83
2023-11-15T07:26:22.622Z,98534.83
2023-11-15T07:28:54.553Z,98540.02
2023-11-15T07:31:24.329Z,98544.66
2023-11-15T07:33:53.567Z,98544.17
2023-11-15T07:36:22.928Z,98548.57
2023-11-15T07:38:52.280Z,98552.64
2023-11-15T07:41:21.565Z,98556.35
2023-11-15T07:43:51.044Z,98561.98
2023-11-15T07:46:22.489Z,98567.90
2023-11-15T07:48:52.126Z,98567.86
2023-11-15T07:51:21.911Z,98567.81
2023-11-15T07:53:51.746Z,98567.70
2023-11-15T07:56:23.867Z,98572.08
2023-11-15T07:58:54.837Z,98574.67
2023-11-15T08:01:24.420Z,98575.47
2023-11-15T08:03:54.538Z,98580.44
2023-11-15T08:06:24.388Z,98587.41
2023-11-15T08:08:55.179Z,98590.60
2023-11-15T08:11:26.464Z,98600.63
2023-11-15T08:13:57.994Z,98608.27
2023-11-15T08:16:29.454Z,98610.50
2023-11-15T08:18:59.202Z,98615.46
2023-11-15T08:21:29.735Z,98621.62
2023-11-15T08:23:59.247Z,98626.30
2023-11-15T08:26:28.839Z,98630.27
2023-11-15T08:28:58.174Z,98635.99
2023-11-15T08:31:29.194Z,98637.54
2023-11-15T08:33:59.607Z,98640.73
2023-11-15T08:36:29.077Z,98643.14
2023-11-15T08:38:59.322Z,98649.17
2023-11-15T08:41:29.419Z,98654.55
2023-11-15T08:43:58.577Z,98659.94
2023-11-15T08:46:28.377Z,98662.75
2023-11-15T08:49:01.152Z,98666.92
2023-11-15T08:51:30.620Z,98671.26
2023-11-15T08:54:00.020Z,98678.38
2023-11-15T08:56:32.006Z,98683.42
2023-11-15T08:59:01.321Z,98690.17
2023-11-15T09:01:31.244Z,98691.38
2023-11-15T09:04:00.908Z,98696.43
2023-11-15T09:06:32.426Z,98703.96
2023-11-15T09:09:04.500Z,98706.24
2023-11-15T09:11:34.641Z,98711.02
2023-11-15T09:14:08.725Z,98715.06
2023-11-15T09:16:38.018Z,98719.96
2023-11-15T09:19:10.981Z,98723.55
2023-11-15T09:21:42.108Z,98726.81
2023-11-15T09:24:12.718Z,98729.55
2023-11-15T09:26:42.315Z,98732.20
2023-11-15T09:29:11.722Z,98736.25
2023-11-15T09:31:44.422Z,98737.19
2023-11-15T09:34:13.871Z,98737.70
2023-11-15T09:36:43.949Z,98740.64
2023-11-15T09:39:16.836Z,98746.85
2023-11-15T09:41:53.782Z,98752.92
2023-11-15T09:44:24.329Z,98756.86
2023-11-15T09:46:54.362Z,98759.84
2023-11-15T09:49:26.372Z,98759.88
2023-11-15T09:51:59.737Z,98763.80
2023-11-15T09:54:32.517Z,98768.73
2023-11-15T09:57:05.024Z,98771.00
2023-11-15T09:59:35.142Z,98775.75
2023-11-15T10:02:05.588Z,98778.66
2023-11-15T10:04:35.281Z,98779.19
2023-11-15T10:07:06.888Z,98781.99
2023-11-15T10:09:39.389Z,98786.42
2023-11-15T10:12:10.112Z,98788.23
2023-11-15T10:14:53.411Z,98790.05
2023-11-15T10:17:40.664Z,98792.45
2023-11-15T10:20:21.615Z,98792.86
2023-11-15T10:22:53.456Z,98796.62
2023-11-15T10:25:26.255Z,98800.18
2023-11-15T10:28:03.877Z,98802.61
2023-11-15T10:30:34.112Z,98808.90
2023-11-15T10:33:11.030Z,98808.89
2023-11-15T10:35:43.723Z,98813.94
2023-11-15T10:38:20.437Z,98818.97
2023-11-15T10:40:52.712Z,98823.04
2023-11-15T10:43:22.551Z,98831.68
2023-11-15T10:45:56.507Z,98839.16
2023-11-15T10:48:36.887Z,98851.73
2023-11-15T10:51:14.191Z,98855.38
2023-11-15T10:53:45.904Z,98856.73
2023-11-15T10:56:17.036Z,98856.80
2023-11-15T10:58:50.581Z,98859.69
2023-11-15T11:01:23.555Z,98867.62
2023-11-15T11:03:56.462Z,98870.84
2023-11-15T11:06:36.348Z,98874.69
2023-11-15T11:09:13.759Z,98878.27
2023-11-15T11:11:52.698Z,98881.46
2023-11-15T11:14:27.361Z,98883.25
2023-11-15T11:16:57.522Z,98885.85
2023-11-15T11:19:27.770Z,98887.50
2023-11-15T11:22:12.376Z,98894.64
2023-11-15T11:24:49.321Z,98899.27
2023-11-15T11:27:32.483Z,98904.52
2023-11-15T11:30:21.415Z,98911.20
2023-11-15T11:33:06.890Z,98921.10
2023-11-15T11:35:36.708Z,98919.48
2023-11-15T11:38:07.022Z,98925.56
2023-11-15T11:40:39.572Z,98934.31
2023-11-15T11:43:30.638Z,98937.53
2023-11-15T11:46:14.099Z,98943.92
2023-11-15T11:48:44.087Z,98948.47
2023-11-15T11:51:15.946Z,98949.89
2023-11-15T11:53:47.334Z,98953.46
2023-11-15T11:56:16.714Z,98957.05
2023-11-15T11:58:46.401Z,98963.30
2023-11-15T12:01:15.764Z,98965.64
2023-11-15T12:03:49.875Z,98972.82
2023-11-15T12:06:19.960Z,98981.55
2023-11-15T12:08:51.570Z,98990.66
2023-11-15T12:11:23.582Z,98993.63
2023-11-15T12:13:54.290Z,99004.60
2023-11-15T12:16:25.716Z,99007.36
2023-11-15T12:19:06.749Z,99013.54
2023-11-15T12:21:39.583Z,99018.67
2023-11-15T12:24:11.325Z,99022.24
2023-11-15T12:26:46.087Z,99027.63
2023-11-15T12:29:20.813Z,99024.52
2023-11-15T12:31:52.653Z,99030.52
2023-11-15T12:34:22.906Z,99037.16
2023-11-15T12:36:52.735Z,99048.44
2023-11-15T12:39:22.674Z,99052.34
2023-11-15T12:41:53.882Z,99054.70
2023-11-15T12:44:23.886Z,99057.36
2023-11-15T12:46:54.273Z,99056.21
2023-11-15T12:49:27.129Z,99059.48
2023-11-15T12:51:56.454Z,99059.56
2023-11-15T12:54:25.665Z,99058.17
2023-11-15T12:57:08.152Z,99060.34
2023-11-15T12:59:38.985Z,99063.71
2023-11-15T13:02:12.496Z,99067.39
2023-11-15T13:04:51.133Z,99069.73
2023-11-15T13:07:20.698Z,99076.52
2023-11-15T13:09:50.251Z,99080.38
2023-11-15T13:12:26.763Z,99087.52
2023-11-15T13:14:57.261Z,99095.93
2023-11-15T13:17:27.486Z,99097.87
2023-11-15T13:19:59.812Z,99099.64
2023-11-15T13:22:31.911Z,99105.87
2023-11-15T13:25:01.322Z,99112.33
2023-11-15T13:27:32.279Z,99123.19
2023-11-15T13:30:01.534Z,99127.91
2023-11-15T13:32:33.374Z,99135.23
2023-11-15T13:35:06.633Z,99142.55
2023-11-15T13:37:36.007Z,99147.48
2023-11-15T13:40:09.743Z,99152.40
2023-11-15T13:42:42.702Z,99159.18
2023-11-15T13:45:14.668Z,99163.29
2023-11-15T13:47:46.453Z,99169.89
2023-11-15T13:50:16.102Z,99171.38
2023-11-15T13:52:45.710Z,99174.89
2023-11-15T13:55:15.208Z,99179.89
2023-11-15T13:57:44.604Z,99185.95
2023-11-15T14:00:21.255Z,99192.08
2023-11-15T14:02:52.324Z,99196.41
2023-11-15T14:05:21.998Z,99201.25
2023-11-15T14:07:52.772Z,99208.52
2023-11-15T14:10:26.191Z,99211.63
2023-11-15T14:13:01.235Z,99221.53
2023-11-15T14:15:29.956Z,99226.70
2023-11-15T14:17:59.722Z,99233.39
2023-11-15T14:20:29.857Z,99238.33
2023-11-15T14:22:59.574Z,99237.68
2023-11-15T14:25:32.916Z,99238.55
2023-11-15T14:28:04.008Z,99246.81
2023-11-15T14:30:34.258Z,99250.43
2023-11-15T14:33:05.204Z,99256.09
2023-11-15T14:35:35.849Z,99269.59
2023-11-15T14:38:08.873Z,99276.30
2023-11-15T14:40:39.365Z,99283.63
2023-11-15T14:43:10.422Z,99290.25
2023-11-15T14:45:42.972Z,99298.02
2023-11-15T14:48:12.817Z,99307.48
2023-11-15T14:50:43.398Z,99310.06
2023-11-15T14:53:30.040Z,99314.34
2023-11-15T14:56:00.346Z,99320.30
2023-11-15T14:58:29.622Z,99327.76
2023-11-15T15:00:58.920Z,99332.13
2023-11-15T15:03:28.391Z,99341.16
2023-11-15T15:05:58.086Z,99346.77
2023-11-15T15:08:27.893Z,99354.10
2023-11-15T15:10:57.724Z,99362.16
2023-11-15T15:13:27.265Z,99367.56
2023-11-15T15:15:56.768Z,99373.55
2023-11-15T15:18:32.357Z,99378.94
2023-11-15T15:21:04.957Z,99383.86
2023-11-15T15:23:34.223Z,99389.10
2023-11-15T15:26:05.655Z,99395.00
2023-11-15T15:28:35.319Z,99401.04
2023-11-15T15:31:06.992Z,99408.52
2023-11-15T15:33:37.300Z,99413.00
2023-11-15T15:36:09.801Z,99416.64
2023-11-15T15:38:39.440Z,99423.71
2023-11-15T15:41:09.252Z,99431.03
2023-11-15T15:43:39.513Z,99434.42
2023-11-15T15:46:09.116Z,99437.42
2023-11-15T15:48:38.565Z,99435.42
2023-11-15T15:51:09.660Z,99438.14
2023-11-15T15:53:39.404Z,99447.89
2023-11-15T15:56:09.269Z,99449.34
2023-11-15T15:58:39.459Z,99457.65
2023-11-15T16:01:09.281Z,99462.44
2023-11-15T16:03:38.930Z,99470.73
2023-11-15T16:06:09.518Z,99478.48
2023-11-15T16:08:39.226Z,99484.98
2023-11-15T16:11:08.488Z,99488.32
2023-11-15T16:13:38.149Z,99486.55
2023-11-15T16:16:10.541Z,99490.58
2023-11-15T16:18:42.534Z,99494.67
2023-11-15T16:21:12.415Z,99498.69
2023-11-15T16:23:42.222Z,99504.48
2023-11-15T16:26:11.436Z,99507.06
2023-11-15T16:28:41.174Z,99514.08
2023-11-15T16:31:12.009Z,99515.59
2023-11-15T16:33:42.378Z,99515.88
2023-11-15T16:36:12.477Z,99518.70
2023-11-15T16:38:44.840Z,99520.55
2023-11-15T16:41:16.339Z,99523.54
2023-11-15T16:43:45.826Z,99527.90
2023-11-15T16:46:17.075Z,99528.70
2023-11-15T16:48:46.857Z,99540.43
2023-11-15T16:51:16.628Z,99542.81
2023-11-15T16:53:46.571Z,99550.05
2023-11-15T16:56:15.737Z,99551.59
2023-11-15T16:58:45.014Z,99557.66
2023-11-15T17:01:14.245Z,99563.09
2023-11-15T17:03:47.128Z,99567.20
2023-11-15T17:06:16.909Z,99571.93
2023-11-15T17:08:48.946Z,99575.53
2023-11-15T17:11:20.510Z,99580.69
2023-11-15T17:13:50.406Z,99584.41
2023-11-15T17:16:20.090Z,99587.45
2023-11-15T17:18:49.784Z,99589.48
2023-11-15T17:21:20.058Z,99591.05
2023-11-15T17:23:49.992Z,99592.53
2023-11-15T17:26:20.597Z,99592.98
2023-11-15T17:28:50.679Z,99601.10
2023-11-15T17:31:25.309Z,99605.59
2023-11-15T17:33:56.428Z,99609.07
2023-11-15T17:36:29.206Z,99610.84
2023-11-15T17:39:01.015Z,99611.65
2023-11-15T17:41:30.958Z,99616.88
2023-11-15T17:44:01.687Z,99615.34
2023-11-15T17:46:32.494Z,99617.65
2023-11-15T17:49:02.288Z,99620.31
2023-11-15T17:51:31.951Z,99622.08
2023-11-15T17:54:01.461Z,99625.13
2023-11-15T17:56:31.446Z,99632.55
2023-11-15T17:59:02.971Z,99643.15
2023-11-15T18:01:38.721Z,99646.29
2023-11-15T18:04:09.362Z,99649.23
2023-11-15T18:06:39.382Z,99653.16
2023-11-15T18:09:10.663Z,99657.42
2023-11-15T18:11:40.542Z,99654.44
2023-11-15T18:14:10.033Z,99661.52
2023-11-15T18:16:39.379Z,99665.74
2023-11-15T18:19:09.003Z,99664.08
2023-11-15T18:21:38.929Z,99665.09
2023-11-15T18:24:12.010Z,99665.02
2023-11-15T18:26:42.474Z,99668.92
2023-11-15T18:29:11.978Z,99674.34
2023-11-15T18:31:41.972Z,99675.52
2023-11-15T18:34:11.933Z,99679.45
2023-11-15T18:36:44.563Z,99682.90
2023-11-15T18:39:15.318Z,99687.13
2023-11-15T18:41:45.362Z,99686.63
2023-11-15T18:44:16.547Z,99688.66
2023-11-15T18:46:49.657Z,99693.17
2023-11-15T18:49:20.871Z,99692.54
2023-11-15T18:51:53.339Z,99691.56
2023-11-15T18:54:26.982Z,99696.66
2023-11-15T18:56:56.626Z,99696.83
2023-11-15T18:59:25.950Z,99702.61
2023-11-15T19:01:56.080Z,99713.06
2023-11-15T19:04:25.498Z,99714.00
2023-11-15T19:06:56.284Z,99711.36
2023-11-15T19:09:34.081Z,99716.11
2023-11-15T19:12:04.671Z,99720.57
2023-11-15T19:14:34.830Z,99719.94
2023-11-15T19:17:04.586Z,99716.45
2023-11-15T19:19:35.232Z,99722.45
2023-11-15T19:22:05.996Z,99728.23
2023-11-15T19:24:35.641Z,99726.92
2023-11-15T19:27:05.605Z,99728.92
2023-11-15T19:29:35.875Z,99732.91
2023-11-15T19:32:07.077Z,99734.66
2023-11-15T19:34:36.690Z,99741.08
2023-11-15T19:37:06.919Z,99741.23
2023-11-15T19:39:36.630Z,99745.23
2023-11-15T19:42:06.639Z,99750.58
2023-11-15T19:44:36.058Z,99757.38
2023-11-15T19:47:06.071Z,99764.55
2023-11-15T19:49:35.704Z,99767.89
2023-11-15T19:52:14.806Z,99774.66
2023-11-15T19:54:46.821Z,99776.66
2023-11-15T19:57:17.850Z,99777.60
2023-11-15T19:59:47.848Z,99779.84
2023-11-15T20:02:17.232Z,99779.65
2023-11-15T20:04:46.864Z,99776.63
2023-11-15T20:07:16.439Z,99778.53
2023-11-15T20:09:46.820Z,99781.48
2023-11-15T20:12:22.076Z,99787.23
2023-11-15T20:14:52.394Z,99791.82
2023-11-15T20:17:21.880Z,99799.02
2023-11-15T20:19:52.145Z,99806.71
2023-11-15T20:22:21.545Z,99807.92
2023-11-15T20:24:51.003Z,99812.95
2023-11-15T20:27:20.623Z,99811.37
2023-11-15T20:29:50.332Z,99815.73
2023-11-15T20:32:19.623Z,99820.69
2023-11-15T20:34:48.940Z,99828.45
2023-11-15T20:37:18.389Z,99834.52
2023-11-15T20:39:47.961Z,99836.06
2023-11-15T20:42:17.896Z,99838.23
2023-11-15T20:44:47.800Z,99839.55
2023-11-15T20:47:19.556Z,99841.70
2023-11-15T20:49:51.692Z,99843.71
2023-11-15T20:52:21.362Z,99837.82
2023-11-15T20:54:51.185Z,99842.33
2023-11-15T20:57:23.374Z,99839.32
2023-11-15T20:59:56.418Z,99824.48
2023-11-15T21:02:27.358Z,99828.47
2023-11-15T21:04:58.406Z,99832.84
2023-11-15T21:07:27.992Z,99833.23
2023-11-15T21:09:57.435Z,99832.81
2023-11-15T21:12:27.484Z,99828.33
2023-11-15T21:14:56.947Z,99833.30
2023-11-15T21:17:26.900Z,99833.54
2023-11-15T21:19:56.759Z,99840.05
2023-11-15T21:22:27.021Z,99847.36
2023-11-15T21:24:56.277Z,99845.03
2023-11-15T21:27:25.558Z,99848.38
2023-11-15T21:29:55.206Z,99852.21
2023-11-15T21:32:26.887Z,99854.02
2023-11-15T21:34:56.186Z,99853.83
2023-11-15T21:37:25.485Z,99854.88
2023-11-15T21:39:54.816Z,99853.59
2023-11-15T21:42:24.511Z,99858.84
2023-11-15T21:44:54.226Z,99861.13
2023-11-15T21:47:23.530Z,99867.87
2023-11-15T21:49:53.491Z,99871.02
2023-11-15T21:52:24.003Z,99870.10
2023-11-15T21:54:58.672Z,99870.46
2023-11-15T21:57:29.400Z,99873.45
2023-11-15T22:00:01.120Z,99875.02
2023-11-15T22:02:31.560Z,99875.73
2023-11-15T22:05:01.546Z,99876.40
2023-11-15T22:07:31.070Z,99876.19
2023-11-15T22:10:46.001Z,99882.44
2023-11-15T22:13:23.444Z,99883.52
2023-11-15T22:15:52.901Z,99886.24
2023-11-15T22:18:22.581Z,99892.65
2023-11-15T22:20:54.782Z,99895.86
2023-11-15T22:23:24.929Z,99900.41
2023-11-15T22:25:54.887Z,99898.61
2023-11-15T22:28:25.035Z,99902.89
2023-11-15T22:30:54.825Z,99904.95
2023-11-15T22:33:24.532Z,99902.73
2023-11-15T22:35:54.328Z,99907.98
2023-11-15T22:38:25.051Z,99911.45
2023-11-15T22:40:54.889Z,99917.75
2023-11-15T22:43:24.016Z,99921.84
2023-11-15T22:45:53.755Z,99924.23
2023-11-15T22:48:23.847Z,99928.31
2023-11-15T22:50:53.476Z,99925.65
2023-11-15T22:53:23.024Z,99930.48
2023-11-15T22:55:52.664Z,99934.26
2023-11-15T22:58:22.038Z,99933.36
2023-11-15T23:00:52.104Z,99937.88
2023-11-15T23:03:22.279Z,99938.83
2023-11-15T23:05:52.017Z,99939.23
2023-11-15T23:08:21.748Z,99930.77
2023-11-15T23:10:51.529Z,99933.54
2023-11-15T23:13:20.934Z,99938.67
2023-11-15T23:15:52.548Z,99932.77
2023-11-15T23:18:23.558Z,99930.29
2023-11-15T23:20:53.318Z,99932.27
2023-11-15T23:23:23.029Z,99933.48
2023-11-15T23:25:52.834Z,99932.55
2023-11-15T23:28:23.067Z,99937.96
2023-11-15T23:30:55.745Z,99940.95
2023-11-15T23:33:25.547Z,99939.13
2023-11-15T23:35:54.948Z,99937.88
2023-11-15T23:38:25.267Z,99936.15
2023-11-15T23:40:55.005Z,99932.67
2023-11-15T23:43:28.517Z,99937.09
2023-11-15T23:45:58.439Z,99938.25
2023-11-15T23:48:27.989Z,99942.42
2023-11-15T23:50:57.746Z,99942.98
2023-11-15T23:53:28.083Z,99951.68
2023-11-15T23:55:57.806Z,99954.40
2023-11-15T23:58:28.735Z,99961.67
